Time;durP1;ratioP1;P1;durP2;ratioP2;P2;SDS_P1;SDS_P2;PMS_P1;PMS_P2;Temp;Humidity;BMP_temperature;BMP_pressure;BME280_temperature;BME280_humidity;BME280_pressure;Samples;Min_cycle;Max_cycle;Signal;HPM_P1;HPM_P2
2021/12/14 00:02:27;;;;;;;7.10;3.90;;;9.50;99.90;;;;;;5050910;28;20472;-83
2021/12/14 00:04:55;;;;;;;4.30;3.13;;;9.50;99.90;;;;;;5053669;28;20885;-83
2021/12/14 00:07:22;;;;;;;3.50;2.77;;;9.50;99.90;;;;;;5040105;28;20487;-83
2021/12/14 00:09:52;;;;;;;5.20;3.83;;;9.50;99.90;;;;;;5039519;28;20450;-82
2021/12/14 00:12:34;;;;;;;4.23;3.30;;;9.40;99.90;;;;;;5044948;28;20474;-83
2021/12/14 00:15:08;;;;;;;4.97;3.00;;;9.30;99.90;;;;;;5039084;28;20508;-83
2021/12/14 00:17:40;;;;;;;3.73;3.07;;;9.30;99.90;;;;;;5038673;28;20446;-83
2021/12/14 00:20:16;;;;;;;3.50;2.93;;;9.30;99.90;;;;;;5043567;28;20544;-82
2021/12/14 00:25:30;;;;;;;4.87;3.07;;;9.30;99.90;;;;;;5037826;28;20485;-83
2021/12/14 00:28:00;;;;;;;4.83;2.50;;;9.30;99.90;;;;;;5044852;28;20536;-83
2021/12/14 00:30:28;;;;;;;4.10;2.90;;;9.30;99.90;;;;;;5055813;28;20455;-82
2021/12/14 00:32:55;;;;;;;4.20;3.07;;;9.20;99.90;;;;;;5042565;28;20474;-83
2021/12/14 00:35:22;;;;;;;5.30;3.23;;;9.20;99.90;;;;;;5035474;28;20476;-82
2021/12/14 00:37:53;;;;;;;5.27;2.80;;;9.20;99.90;;;;;;5042974;28;20446;-82
2021/12/14 00:40:23;;;;;;;4.63;3.20;;;9.10;99.90;;;;;;5056088;28;20997;-83
2021/12/14 00:42:52;;;;;;;4.87;3.37;;;9.10;99.90;;;;;;5043447;28;20475;-83
2021/12/14 00:45:20;;;;;;;4.47;3.67;;;9.10;99.90;;;;;;5043612;28;20537;-83
2021/12/14 00:47:49;;;;;;;3.70;2.73;;;9.10;99.90;;;;;;5044482;28;20459;-82
2021/12/14 00:50:17;;;;;;;5.30;2.90;;;9.20;99.90;;;;;;5045230;28;20458;-83
2021/12/14 00:52:44;;;;;;;4.03;3.03;;;9.20;99.90;;;;;;5040990;28;20508;-83
2021/12/14 00:55:14;;;;;;;5.20;3.10;;;9.20;99.90;;;;;;5043545;28;20486;-83
2021/12/14 00:57:41;;;;;;;5.13;3.00;;;9.20;99.90;;;;;;5042175;28;20451;-83
2021/12/14 01:00:12;;;;;;;4.47;2.90;;;9.10;99.90;;;;;;5044788;28;20436;-82
2021/12/14 01:02:40;;;;;;;5.13;3.70;;;9.10;99.90;;;;;;5042453;28;20485;-83
2021/12/14 01:05:13;;;;;;;4.10;2.60;;;9.10;99.90;;;;;;5050468;28;20458;-83
2021/12/14 01:07:40;;;;;;;4.97;3.17;;;9.10;99.90;;;;;;5041166;28;20460;-83
2021/12/14 01:10:14;;;;;;;4.00;3.13;;;9.10;99.90;;;;;;5033899;28;20531;-82
2021/12/14 01:12:48;;;;;;;4.00;3.00;;;9.10;99.90;;;;;;5040266;28;20537;-83
2021/12/14 01:15:27;;;;;;;4.60;3.27;;;9.10;99.90;;;;;;5041724;28;20880;-82
2021/12/14 01:18:14;;;;;;;4.40;3.03;;;9.20;99.90;;;;;;5042803;28;20484;-82
2021/12/14 01:20:45;;;;;;;4.13;2.80;;;9.10;99.90;;;;;;5036363;28;20526;-83
2021/12/14 01:23:18;;;;;;;4.20;3.27;;;9.10;99.90;;;;;;5055277;28;20464;-83
2021/12/14 01:25:51;;;;;;;5.13;3.63;;;9.10;99.90;;;;;;5046326;28;20489;-83
2021/12/14 01:28:22;;;;;;;6.00;4.07;;;9.10;99.90;;;;;;5049932;28;20514;-82
2021/12/14 01:31:00;;;;;;;5.50;3.23;;;9.10;99.90;;;;;;5042954;28;20536;-82
2021/12/14 01:33:28;;;;;;;8.07;3.60;;;9.20;99.90;;;;;;5035360;28;20472;-83
2021/12/14 01:35:57;;;;;;;5.00;3.43;;;9.20;99.90;;;;;;5039591;28;20495;-82
2021/12/14 01:38:35;;;;;;;4.70;4.10;;;9.10;99.90;;;;;;5035687;28;20846;-83
2021/12/14 01:41:06;;;;;;;4.20;3.00;;;9.10;99.90;;;;;;5042702;28;20450;-83
2021/12/14 01:43:39;;;;;;;4.73;3.50;;;9.10;99.90;;;;;;5043778;28;20487;-83
2021/12/14 01:46:12;;;;;;;5.33;3.63;;;9.20;99.90;;;;;;5033819;28;20544;-83
2021/12/14 01:48:40;;;;;;;4.10;3.00;;;9.20;99.90;;;;;;5040195;28;20461;-82
2021/12/14 01:51:11;;;;;;;3.70;3.00;;;9.00;99.90;;;;;;5037915;28;20453;-83
2021/12/14 01:53:40;;;;;;;5.20;3.90;;;9.10;99.90;;;;;;5038992;28;20881;-83
2021/12/14 01:56:15;;;;;;;5.00;3.50;;;9.10;99.90;;;;;;5038230;28;20830;-83
2021/12/14 01:58:45;;;;;;;3.97;2.93;;;9.00;99.90;;;;;;5037831;28;20467;-83
2021/12/14 02:01:18;;;;;;;4.50;3.30;;;9.10;99.90;;;;;;5032400;28;20449;-83
2021/12/14 02:03:49;;;;;;;5.47;3.30;;;9.10;99.90;;;;;;5036610;28;20487;-83
2021/12/14 02:06:22;;;;;;;5.20;3.60;;;9.10;99.90;;;;;;5037707;28;20449;-83
2021/12/14 02:08:55;;;;;;;5.20;3.70;;;9.10;99.90;;;;;;5039740;28;20540;-83
2021/12/14 02:11:22;;;;;;;6.00;4.13;;;9.10;99.90;;;;;;5040154;28;20458;-83
2021/12/14 02:13:55;;;;;;;5.10;3.50;;;9.00;99.90;;;;;;5039267;28;20491;-84
2021/12/14 02:16:23;;;;;;;4.30;2.97;;;9.00;99.90;;;;;;5040756;28;20477;-84
2021/12/14 02:18:53;;;;;;;5.20;3.37;;;9.10;99.90;;;;;;5040869;28;20454;-83
2021/12/14 02:21:21;;;;;;;6.03;3.80;;;9.00;99.90;;;;;;5040108;28;20556;-84
2021/12/14 02:23:51;;;;;;;6.87;3.87;;;9.00;99.90;;;;;;5040318;28;20472;-83
2021/12/14 02:26:21;;;;;;;4.83;3.43;;;9.10;99.90;;;;;;5040153;28;20460;-82
2021/12/14 02:28:48;;;;;;;5.00;4.13;;;9.00;99.90;;;;;;5036420;28;20441;-83
2021/12/14 02:31:17;;;;;;;5.67;4.03;;;9.00;99.90;;;;;;5034995;28;20455;-83
2021/12/14 02:33:48;;;;;;;4.30;2.87;;;9.00;99.90;;;;;;5036359;28;20852;-83
2021/12/14 02:36:23;;;;;;;5.70;4.07;;;8.90;99.90;;;;;;5036358;28;21011;-83
2021/12/14 02:39:04;;;;;;;5.10;3.43;;;9.00;99.90;;;;;;5036204;28;20454;-83
2021/12/14 02:41:31;;;;;;;7.03;5.07;;;8.90;99.90;;;;;;5035696;28;20465;-83
2021/12/14 02:44:00;;;;;;;5.87;4.13;;;9.00;99.90;;;;;;5036323;28;20470;-84
2021/12/14 02:46:30;;;;;;;6.37;4.30;;;9.00;99.90;;;;;;5039051;28;20449;-83
2021/12/14 02:48:59;;;;;;;6.07;3.90;;;8.90;99.90;;;;;;5035977;28;20449;-83
2021/12/14 02:51:30;;;;;;;4.43;3.33;;;9.00;99.90;;;;;;5036361;28;20456;-82
2021/12/14 02:54:02;;;;;;;5.40;3.80;;;9.00;99.90;;;;;;5035900;28;20473;-83
2021/12/14 02:56:32;;;;;;;4.30;3.00;;;9.00;99.90;;;;;;5035469;28;20489;-83
2021/12/14 02:59:02;;;;;;;5.70;3.93;;;9.00;99.90;;;;;;5035346;28;20459;-83
2021/12/14 03:01:31;;;;;;;6.70;3.70;;;8.80;99.90;;;;;;5034223;28;20449;-83
2021/12/14 03:04:01;;;;;;;6.07;4.37;;;8.80;99.90;;;;;;5035503;28;20473;-83
2021/12/14 03:06:31;;;;;;;6.23;3.60;;;8.70;99.90;;;;;;5036274;28;20448;-82
2021/12/14 03:09:08;;;;;;;6.50;3.83;;;8.70;99.90;;;;;;5037324;28;20985;-83
2021/12/14 03:11:36;;;;;;;6.80;4.50;;;8.70;99.90;;;;;;5036268;28;21043;-83
2021/12/14 03:14:04;;;;;;;5.60;4.00;;;8.70;99.90;;;;;;5035546;28;20472;-83
2021/12/14 03:16:34;;;;;;;7.97;4.13;;;8.80;99.90;;;;;;5035768;28;20563;-82
2021/12/14 03:19:06;;;;;;;5.53;3.83;;;8.70;99.90;;;;;;5035437;28;20454;-81
2021/12/14 03:21:37;;;;;;;4.80;3.40;;;8.70;99.90;;;;;;5031760;28;20461;-83
2021/12/14 03:24:08;;;;;;;5.87;4.33;;;8.70;99.90;;;;;;5030420;28;20477;-83
2021/12/14 03:26:38;;;;;;;6.80;4.00;;;8.80;99.90;;;;;;5036584;28;20462;-83
2021/12/14 03:29:08;;;;;;;6.83;4.60;;;8.70;99.90;;;;;;5036961;28;20457;-84
2021/12/14 03:31:38;;;;;;;8.00;4.50;;;8.70;99.90;;;;;;5035514;28;20457;-83
2021/12/14 03:34:08;;;;;;;9.20;5.10;;;8.70;99.90;;;;;;5037342;28;20489;-83
2021/12/14 03:36:39;;;;;;;6.30;4.33;;;8.70;99.90;;;;;;5039102;28;20496;-83
2021/12/14 03:39:12;;;;;;;6.87;4.73;;;8.80;99.90;;;;;;5038250;28;20548;-82
2021/12/14 03:41:43;;;;;;;11.00;5.03;;;8.80;99.90;;;;;;5036083;28;20510;-82
2021/12/14 03:44:13;;;;;;;8.10;5.60;;;8.80;99.90;;;;;;5035325;28;20460;-82
2021/12/14 03:46:48;;;;;;;8.17;5.97;;;8.70;99.90;;;;;;5035085;28;20463;-82
2021/12/14 03:49:17;;;;;;;4.90;4.20;;;8.70;99.90;;;;;;5035803;28;20444;-83
2021/12/14 03:51:45;;;;;;;9.47;5.70;;;8.70;99.90;;;;;;5034874;28;20452;-82
2021/12/14 03:54:15;;;;;;;11.00;4.87;;;8.80;99.90;;;;;;5036660;28;20455;-83
2021/12/14 03:56:42;;;;;;;6.73;4.80;;;8.80;99.90;;;;;;5039318;28;20483;-82
2021/12/14 03:59:09;;;;;;;6.77;4.90;;;8.90;99.90;;;;;;5039293;28;20464;-84
2021/12/14 04:01:40;;;;;;;8.00;5.30;;;8.80;99.90;;;;;;5038926;28;20540;-83
2021/12/14 04:04:14;;;;;;;7.53;5.10;;;8.90;99.90;;;;;;5040261;28;20448;-83
2021/12/14 04:06:41;;;;;;;7.87;5.60;;;8.90;99.90;;;;;;5039424;28;20454;-83
2021/12/14 04:09:13;;;;;;;7.47;5.13;;;8.90;99.90;;;;;;5040069;28;20486;-84
2021/12/14 04:11:41;;;;;;;7.83;5.33;;;8.90;99.90;;;;;;5038824;28;20461;-83
2021/12/14 04:14:09;;;;;;;7.93;5.63;;;8.90;99.90;;;;;;5039638;28;20472;-83
2021/12/14 04:16:38;;;;;;;8.90;5.97;;;8.90;99.90;;;;;;5038587;28;20576;-83
2021/12/14 04:19:11;;;;;;;7.30;5.90;;;8.80;99.90;;;;;;5039129;28;20495;-83
2021/12/14 04:21:41;;;;;;;9.23;5.97;;;8.90;99.90;;;;;;5039090;28;20540;-83
2021/12/14 04:24:11;;;;;;;11.10;6.10;;;8.90;99.90;;;;;;5039498;28;20456;-83
2021/12/14 04:26:43;;;;;;;9.30;6.20;;;8.80;99.90;;;;;;5039357;28;20524;-83
2021/12/14 04:29:12;;;;;;;10.43;6.83;;;8.80;99.90;;;;;;5039296;28;20481;-83
2021/12/14 04:31:40;;;;;;;9.40;6.07;;;8.80;99.90;;;;;;5037750;28;20465;-82
2021/12/14 04:34:07;;;;;;;11.03;6.67;;;8.80;99.90;;;;;;5038341;28;20834;-82
2021/12/14 04:36:34;;;;;;;9.73;6.67;;;8.70;99.90;;;;;;5039107;28;20481;-82
2021/12/14 04:39:29;;;;;;;15.37;8.63;;;8.70;99.90;;;;;;5038755;28;20540;-82
2021/12/14 04:53:16;;;;;;;12.30;6.83;;;8.40;99.90;;;;;;5039573;28;20456;-82
2021/12/14 04:55:46;;;;;;;11.67;8.20;;;8.40;99.90;;;;;;5038365;28;20454;-83
2021/12/14 04:58:15;;;;;;;13.40;7.20;;;8.30;99.90;;;;;;5039202;28;20503;-84
2021/12/14 05:00:45;;;;;;;11.03;7.87;;;8.40;99.90;;;;;;5040675;28;20449;-83
2021/12/14 05:03:19;;;;;;;14.30;8.40;;;8.40;99.90;;;;;;5045261;28;20539;-81
2021/12/14 05:05:49;;;;;;;14.90;9.27;;;8.40;99.90;;;;;;5041200;28;20452;-83
2021/12/14 05:11:07;;;;;;;14.97;10.17;;;8.40;99.90;;;;;;5023865;28;21024;-82
2021/12/14 05:13:39;;;;;;;19.83;10.30;;;8.40;99.90;;;;;;5019046;28;20509;-81
2021/12/14 05:16:08;;;;;;;15.00;10.63;;;8.30;99.90;;;;;;5018149;28;20456;-82
2021/12/14 05:18:35;;;;;;;16.93;11.23;;;8.30;99.90;;;;;;5028632;28;20532;-81
2021/12/14 05:21:02;;;;;;;21.27;12.93;;;8.40;99.90;;;;;;5039168;28;20467;-82
2021/12/14 05:23:31;;;;;;;18.53;10.10;;;8.40;99.90;;;;;;5039598;28;20473;-82
2021/12/14 05:26:01;;;;;;;22.27;11.97;;;8.40;99.90;;;;;;5039038;28;20469;-82
2021/12/14 05:28:28;;;;;;;18.10;11.07;;;8.40;99.90;;;;;;5038882;28;20456;-81
2021/12/14 05:30:58;;;;;;;18.60;12.03;;;8.40;99.90;;;;;;5038826;28;20953;-82
2021/12/14 05:33:28;;;;;;;21.07;14.23;;;8.40;99.90;;;;;;5037885;28;20469;-81
2021/12/14 05:35:58;;;;;;;19.83;13.00;;;8.30;99.90;;;;;;5037638;28;20461;-82
2021/12/14 05:38:40;;;;;;;21.40;12.83;;;8.30;99.90;;;;;;5037537;28;20491;-81
2021/12/14 05:43:05;;;;;;;21.70;12.20;;;8.30;99.90;;;;;;5049826;28;20844;-81
2021/12/14 05:43:56;;;;;;;20.57;12.67;;;8.30;99.90;;;;;;5029270;28;20449;-81
2021/12/14 05:46:25;;;;;;;24.13;14.80;;;8.30;99.90;;;;;;5038357;28;20452;-81
2021/12/14 05:48:58;;;;;;;22.40;13.80;;;8.30;99.90;;;;;;5036994;28;20453;-81
2021/12/14 05:51:27;;;;;;;22.10;13.87;;;8.30;99.90;;;;;;5049222;28;21017;-81
2021/12/14 05:53:54;;;;;;;25.67;15.80;;;8.30;99.90;;;;;;5046093;28;20537;-81
2021/12/14 05:56:24;;;;;;;21.83;14.67;;;8.40;99.90;;;;;;5053011;28;20457;-81
2021/12/14 05:58:52;;;;;;;21.60;13.60;;;8.50;99.90;;;;;;5043513;28;20448;-82
2021/12/14 06:01:22;;;;;;;24.43;15.10;;;8.40;99.90;;;;;;5048968;28;20440;-80
2021/12/14 06:03:55;;;;;;;22.03;14.87;;;8.40;99.90;;;;;;5045590;28;20473;-81
2021/12/14 06:06:27;;;;;;;23.33;14.17;;;8.40;99.90;;;;;;5036729;28;20737;-80
2021/12/14 06:09:03;;;;;;;21.27;12.83;;;8.40;99.90;;;;;;5026116;28;20461;-81
2021/12/14 06:11:30;;;;;;;19.93;13.63;;;8.50;99.90;;;;;;5012635;28;20451;-82
2021/12/14 06:13:57;;;;;;;20.67;14.37;;;8.50;99.90;;;;;;5047555;28;20547;-80
2021/12/14 06:16:27;;;;;;;22.10;13.03;;;8.50;99.90;;;;;;5040612;28;20844;-81
2021/12/14 06:19:11;;;;;;;21.77;14.50;;;8.50;99.90;;;;;;5051423;28;20452;-84
2021/12/14 06:21:38;;;;;;;22.93;16.07;;;8.50;99.90;;;;;;5050757;28;20879;-85
2021/12/14 06:24:07;;;;;;;19.43;14.33;;;8.50;99.90;;;;;;5055034;28;20547;-84
2021/12/14 06:26:35;;;;;;;23.67;6.97;;;8.50;99.90;;;;;;5047373;28;20468;-83
2021/12/14 06:29:08;;;;;;;20.40;13.50;;;9.70;99.90;;;;;;5036151;28;20487;-81
2021/12/14 06:31:35;;;;;;;19.50;13.00;;;9.70;99.90;;;;;;5033440;28;21272;-82
2021/12/14 06:34:21;;;;;;;23.63;15.03;;;9.80;99.90;;;;;;5035235;28;20493;-82
2021/12/14 06:37:41;;;;;;;26.03;14.57;;;9.50;99.90;;;;;;5016204;28;20461;-82
2021/12/14 06:40:19;;;;;;;27.60;17.20;;;9.10;99.90;;;;;;5034820;28;20999;-84
2021/12/14 06:42:49;;;;;;;23.10;15.70;;;9.00;99.90;;;;;;5049613;28;20463;-82
2021/12/14 06:45:20;;;;;;;27.17;16.70;;;8.70;99.90;;;;;;5032230;28;20463;-81
2021/12/14 06:47:48;;;;;;;24.93;17.93;;;8.70;99.90;;;;;;5029954;28;20453;-81
2021/12/14 06:50:20;;;;;;;21.63;15.60;;;8.70;99.90;;;;;;5032975;28;20969;-81
2021/12/14 06:52:56;;;;;;;25.20;16.13;;;8.60;99.90;;;;;;5034185;28;20477;-81
2021/12/14 06:55:26;;;;;;;26.57;17.70;;;8.60;99.90;;;;;;5033531;28;20445;-80
2021/12/14 06:57:53;;;;;;;27.37;18.47;;;8.60;99.90;;;;;;5031765;28;20492;-81
2021/12/14 07:00:21;;;;;;;25.07;16.90;;;8.60;99.90;;;;;;5032878;28;20541;-82
2021/12/14 07:02:50;;;;;;;28.47;17.33;;;8.60;99.90;;;;;;5030595;28;20480;-81
2021/12/14 07:05:21;;;;;;;25.80;17.53;;;8.50;99.90;;;;;;5030570;28;20465;-82
2021/12/14 07:07:48;;;;;;;28.67;17.33;;;8.60;99.90;;;;;;5031602;28;20453;-80
2021/12/14 07:10:15;;;;;;;24.20;15.87;;;8.60;99.90;;;;;;5032599;28;20462;-81
2021/12/14 07:12:44;;;;;;;26.70;17.67;;;8.70;99.90;;;;;;5034666;28;20562;-79
2021/12/14 07:15:16;;;;;;;30.97;16.90;;;8.70;99.90;;;;;;5032758;28;20452;-81
2021/12/14 07:17:49;;;;;;;29.53;18.37;;;8.70;99.90;;;;;;5013761;28;20496;-80
2021/12/14 07:20:27;;;;;;;27.43;18.10;;;8.70;99.90;;;;;;5028030;28;20890;-82
2021/12/14 07:22:57;;;;;;;22.37;16.43;;;8.60;99.90;;;;;;5031922;28;20563;-82
2021/12/14 07:25:28;;;;;;;24.53;15.13;;;8.60;99.90;;;;;;5031224;28;20465;-80
2021/12/14 07:27:57;;;;;;;27.47;16.30;;;8.70;99.90;;;;;;5032525;28;20957;-81
2021/12/14 07:30:30;;;;;;;33.10;19.00;;;8.70;99.90;;;;;;5039584;28;20439;-80
2021/12/14 07:33:02;;;;;;;26.47;18.67;;;8.70;99.90;;;;;;5041391;28;20479;-79
2021/12/14 07:35:35;;;;;;;32.13;16.80;;;8.70;99.90;;;;;;5037314;28;20547;-81
2021/12/14 07:38:22;;;;;;;29.53;18.10;;;8.70;99.90;;;;;;5039459;28;20484;-79
2021/12/14 07:40:53;;;;;;;29.03;17.70;;;8.60;99.90;;;;;;5015586;28;20528;-80
2021/12/14 07:43:23;;;;;;;24.63;17.10;;;8.60;99.90;;;;;;5021930;28;20487;-79
2021/12/14 07:45:52;;;;;;;31.20;19.93;;;8.60;99.90;;;;;;5035234;28;20451;-81
2021/12/14 07:48:20;;;;;;;26.33;17.40;;;8.40;99.90;;;;;;5049978;28;20456;-81
2021/12/14 07:50:52;;;;;;;28.20;18.70;;;8.50;99.90;;;;;;5044092;28;20475;-82
2021/12/14 07:53:32;;;;;;;28.40;18.40;;;8.60;99.90;;;;;;5039240;28;20459;-83
2021/12/14 07:56:00;;;;;;;30.97;18.30;;;8.60;99.90;;;;;;5034244;28;20807;-80
2021/12/14 07:58:36;;;;;;;26.37;17.40;;;8.60;99.90;;;;;;5028217;28;20487;-83
2021/12/14 08:01:05;;;;;;;29.53;19.03;;;8.70;99.90;;;;;;5026839;28;20551;-82
2021/12/14 08:03:33;;;;;;;27.27;17.87;;;8.70;99.90;;;;;;5028490;28;20479;-80
2021/12/14 08:06:05;;;;;;;29.70;18.20;;;8.70;99.90;;;;;;5035597;28;20464;-80
2021/12/14 08:08:41;;;;;;;27.77;18.07;;;8.70;99.90;;;;;;5036361;28;20469;-81
2021/12/14 08:11:47;;;;;;;27.90;18.40;;;8.80;99.90;;;;;;5036462;28;20468;-81
2021/12/14 08:14:18;;;;;;;25.43;17.93;;;8.80;99.90;;;;;;5026335;28;20541;-80
2021/12/14 08:16:48;;;;;;;22.70;16.87;;;8.90;99.90;;;;;;5043020;28;20449;-80
2021/12/14 08:19:24;;;;;;;26.70;17.83;;;8.80;99.90;;;;;;5034553;28;20465;-80
2021/12/14 08:21:53;;;;;;;24.77;17.07;;;8.90;99.90;;;;;;5038857;28;21030;-80
2021/12/14 08:24:20;;;;;;;23.17;16.63;;;8.90;99.90;;;;;;5041746;28;20530;-82
2021/12/14 08:26:51;;;;;;;24.87;17.00;;;8.90;99.90;;;;;;5040113;28;20467;-81
2021/12/14 08:29:21;;;;;;;25.67;17.40;;;8.90;99.90;;;;;;5040987;28;20457;-81
2021/12/14 08:31:52;;;;;;;29.03;18.80;;;8.90;99.90;;;;;;5042008;28;20957;-81
2021/12/14 08:34:22;;;;;;;30.33;19.57;;;8.80;99.90;;;;;;5049031;28;20463;-82
2021/12/14 08:36:53;;;;;;;27.83;18.37;;;8.70;99.90;;;;;;5039373;28;21333;-83
2021/12/14 08:39:24;;;;;;;26.43;18.43;;;8.70;99.90;;;;;;5035678;28;20516;-84
2021/12/14 08:41:57;;;;;;;28.40;18.33;;;8.80;99.90;;;;;;5038711;28;21053;-83
2021/12/14 08:44:35;;;;;;;27.57;18.97;;;8.70;99.90;;;;;;5032161;28;20453;-83
2021/12/14 08:47:04;;;;;;;27.70;18.20;;;8.60;99.90;;;;;;5026850;28;20449;-82
2021/12/14 08:49:31;;;;;;;27.60;18.50;;;8.70;99.90;;;;;;5028465;28;20485;-84
2021/12/14 08:52:00;;;;;;;29.33;19.47;;;8.70;99.90;;;;;;5030195;28;20559;-81
2021/12/14 08:54:30;;;;;;;30.13;20.50;;;8.70;99.90;;;;;;5037144;28;20463;-82
2021/12/14 08:57:01;;;;;;;29.60;19.30;;;8.70;99.90;;;;;;5029159;28;20950;-83
2021/12/14 08:59:29;;;;;;;29.50;19.87;;;8.80;99.90;;;;;;5027487;28;20456;-82
2021/12/14 09:01:57;;;;;;;28.23;19.40;;;8.80;99.90;;;;;;5053717;28;20515;-84
2021/12/14 09:04:29;;;;;;;31.73;19.90;;;8.80;99.90;;;;;;5052833;28;20469;-83
2021/12/14 09:07:00;;;;;;;28.27;18.30;;;8.80;99.90;;;;;;5036089;28;20474;-84
2021/12/14 09:09:27;;;;;;;29.67;19.87;;;8.80;99.90;;;;;;5033795;28;20447;-83
2021/12/14 09:11:58;;;;;;;34.20;21.47;;;8.80;99.90;;;;;;5042169;28;20457;-82
2021/12/14 09:14:26;;;;;;;28.57;19.90;;;8.90;99.90;;;;;;5054171;28;20535;-85
2021/12/14 09:16:57;;;;;;;28.33;17.23;;;8.90;99.90;;;;;;5037698;28;20463;-85
2021/12/14 09:19:27;;;;;;;32.90;20.23;;;8.90;99.90;;;;;;5032428;28;20515;-83
2021/12/14 09:21:57;;;;;;;27.57;17.33;;;8.90;99.90;;;;;;5038899;28;20441;-84
2021/12/14 09:24:28;;;;;;;29.43;19.53;;;8.80;99.90;;;;;;5043079;28;20444;-81
2021/12/14 09:26:59;;;;;;;29.63;20.00;;;8.80;99.90;;;;;;5040693;28;20486;-84
2021/12/14 09:29:28;;;;;;;30.97;19.87;;;8.80;99.90;;;;;;5046704;28;20468;-86
2021/12/14 09:31:56;;;;;;;27.23;18.17;;;8.80;99.90;;;;;;5049105;28;20445;-83
2021/12/14 09:34:28;;;;;;;23.83;17.40;;;8.90;99.90;;;;;;5041035;28;20480;-83
2021/12/14 09:36:56;;;;;;;29.27;18.13;;;9.10;99.90;;;;;;5028729;28;20482;-83
2021/12/14 09:39:29;;;;;;;28.13;18.47;;;9.10;99.90;;;;;;5027177;28;20889;-84
2021/12/14 09:41:58;;;;;;;25.87;17.90;;;9.20;99.90;;;;;;5026142;28;21088;-83
2021/12/14 09:44:28;;;;;;;26.87;17.37;;;9.20;99.90;;;;;;5032013;28;20536;-82
2021/12/14 09:46:58;;;;;;;25.83;19.20;;;9.20;99.90;;;;;;5050457;28;21194;-82
2021/12/14 09:49:26;;;;;;;27.37;19.00;;;9.30;99.90;;;;;;5045065;28;20459;-83
2021/12/14 09:51:56;;;;;;;28.83;20.10;;;9.30;99.90;;;;;;5031796;28;20980;-87
2021/12/14 09:54:28;;;;;;;26.20;17.93;;;9.50;99.90;;;;;;5027126;28;20454;-86
2021/12/14 09:57:00;;;;;;;27.63;19.17;;;9.50;99.90;;;;;;5025153;28;20881;-85
2021/12/14 09:59:27;;;;;;;26.50;19.03;;;9.60;99.90;;;;;;5024426;28;20495;-84
2021/12/14 10:01:59;;;;;;;28.50;20.00;;;9.60;99.90;;;;;;5023803;28;20456;-84
2021/12/14 10:04:29;;;;;;;39.20;32.47;;;9.50;99.90;;;;;;5030739;28;20447;-84
2021/12/14 10:06:59;;;;;;;30.10;20.27;;;9.50;99.90;;;;;;5027886;28;20873;-84
2021/12/14 10:09:31;;;;;;;31.00;19.90;;;9.60;99.90;;;;;;5024006;28;20441;-82
2021/12/14 10:12:15;;;;;;;34.20;23.33;;;9.60;99.90;;;;;;5031058;28;20579;-83
2021/12/14 10:14:42;;;;;;;33.97;22.10;;;9.40;99.90;;;;;;5025214;28;21096;-83
2021/12/14 10:17:14;;;;;;;29.73;20.03;;;9.30;99.90;;;;;;5026709;28;20532;-84
2021/12/14 10:19:43;;;;;;;30.43;21.17;;;9.40;99.90;;;;;;5022883;28;20561;-84
2021/12/14 10:22:13;;;;;;;33.30;21.67;;;9.50;99.90;;;;;;5029735;28;20497;-85
2021/12/14 10:24:42;;;;;;;38.93;23.30;;;9.50;99.90;;;;;;5030738;28;20455;-83
2021/12/14 10:27:13;;;;;;;32.90;20.83;;;9.30;99.90;;;;;;5032444;28;20496;-85
2021/12/14 10:29:41;;;;;;;28.90;19.80;;;9.40;99.90;;;;;;5039479;28;20518;-84
2021/12/14 10:32:12;;;;;;;31.50;19.30;;;9.50;99.90;;;;;;5042892;28;20558;-83
2021/12/14 10:34:45;;;;;;;29.50;19.90;;;9.50;99.90;;;;;;5012149;28;20440;-86
2021/12/14 10:37:21;;;;;;;27.30;19.77;;;9.40;99.90;;;;;;5029457;28;20473;-83
2021/12/14 10:45:26;;;;;;;29.73;20.73;;;9.40;99.90;;;;;;5018725;28;20451;-82
2021/12/14 10:47:54;;;;;;;29.10;19.80;;;9.50;99.90;;;;;;5040881;28;20541;-83
2021/12/14 10:50:26;;;;;;;27.20;19.10;;;9.50;99.90;;;;;;5041761;28;20465;-84
2021/12/14 10:52:54;;;;;;;26.23;18.43;;;9.50;99.90;;;;;;5035325;28;20474;-83
2021/12/14 10:55:25;;;;;;;27.10;19.37;;;9.60;99.90;;;;;;5045937;28;20508;-83
2021/12/14 10:57:53;;;;;;;26.63;18.57;;;9.60;99.90;;;;;;5034461;28;20459;-83
2021/12/14 11:00:30;;;;;;;31.10;19.90;;;9.50;99.90;;;;;;5034825;28;20472;-84
2021/12/14 11:03:01;;;;;;;30.60;19.43;;;9.60;99.90;;;;;;5045563;28;21024;-83
2021/12/14 11:05:28;;;;;;;26.47;17.90;;;9.60;99.90;;;;;;5045928;28;21063;-84
2021/12/14 11:07:56;;;;;;;32.67;20.00;;;9.70;99.90;;;;;;5053206;28;20475;-83
2021/12/14 11:10:29;;;;;;;27.17;18.60;;;9.90;99.90;;;;;;5047438;28;20450;-83
2021/12/14 11:13:01;;;;;;;29.47;19.10;;;9.90;99.90;;;;;;5044639;28;20520;-83
2021/12/14 11:15:35;;;;;;;27.87;18.27;;;9.80;99.90;;;;;;5046988;28;20448;-84
2021/12/14 11:18:11;;;;;;;27.80;18.20;;;9.80;99.90;;;;;;5059455;28;20494;-83
2021/12/14 11:20:43;;;;;;;25.00;17.90;;;9.80;99.90;;;;;;5038884;28;20472;-85
2021/12/14 11:23:13;;;;;;;29.40;20.03;;;9.80;99.90;;;;;;5038922;28;20496;-86
2021/12/14 11:25:52;;;;;;;28.90;19.87;;;9.80;99.90;;;;;;5051457;28;20459;-84
2021/12/14 11:28:33;;;;;;;29.40;19.30;;;9.80;99.90;;;;;;5041980;28;20483;-84
2021/12/14 11:31:04;;;;;;;23.53;16.97;;;9.90;99.90;;;;;;5039176;28;20445;-85
2021/12/14 11:33:37;;;;;;;26.90;18.07;;;9.90;99.90;;;;;;5050256;28;20482;-84
2021/12/14 11:36:11;;;;;;;26.53;18.37;;;10.00;99.90;;;;;;5040645;28;20520;-83
2021/12/14 11:38:42;;;;;;;24.60;17.07;;;9.70;99.90;;;;;;5037502;28;20860;-84
2021/12/14 11:41:45;;;;;;;27.60;19.30;;;9.70;99.90;;;;;;5044122;28;20451;-83
2021/12/14 11:44:24;;;;;;;22.80;16.53;;;9.80;99.90;;;;;;4996139;28;20442;-82
2021/12/14 11:47:03;;;;;;;25.20;18.27;;;10.00;99.90;;;;;;5026852;28;20505;-83
2021/12/14 11:49:55;;;;;;;22.13;17.77;;;10.00;99.90;;;;;;5024723;28;20502;-84
2021/12/14 11:52:51;;;;;;;27.40;18.37;;;10.10;99.90;;;;;;5033194;28;20890;-84
2021/12/14 11:55:33;;;;;;;28.00;18.80;;;10.00;99.90;;;;;;4991739;28;20537;-84
2021/12/14 11:58:19;;;;;;;27.13;17.50;;;10.00;99.90;;;;;;5025576;28;20451;-84
2021/12/14 12:00:53;;;;;;;25.17;16.97;;;10.00;99.90;;;;;;5023005;28;20478;-84
2021/12/14 12:03:38;;;;;;;23.57;16.37;;;9.90;99.90;;;;;;5024152;28;20505;-84
2021/12/14 12:06:25;;;;;;;23.60;16.03;;;10.00;99.90;;;;;;5026026;28;20474;-83
2021/12/14 12:11:46;;;;;;;25.60;17.33;;;10.10;99.90;;;;;;5023159;28;20512;-84
2021/12/14 12:14:21;;;;;;;26.03;18.47;;;10.10;99.90;;;;;;5027140;28;20507;-83
2021/12/14 12:16:51;;;;;;;23.37;16.50;;;10.00;99.90;;;;;;5028594;28;20450;-83
2021/12/14 12:19:21;;;;;;;25.37;17.80;;;10.00;99.90;;;;;;5025956;28;20586;-82
2021/12/14 12:21:52;;;;;;;25.47;18.33;;;10.00;99.90;;;;;;5029216;28;20524;-80
2021/12/14 12:24:39;;;;;;;28.70;17.73;;;9.80;99.90;;;;;;5041165;28;20549;-81
2021/12/14 12:27:24;;;;;;;24.83;17.13;;;10.00;99.90;;;;;;5036176;28;20555;-79
2021/12/14 12:30:31;;;;;;;20.57;15.77;;;10.00;99.90;;;;;;5024185;28;21019;-81
2021/12/14 12:33:07;;;;;;;26.40;17.10;;;10.10;99.90;;;;;;5023713;28;20492;-79
2021/12/14 12:35:40;;;;;;;26.27;16.80;;;10.00;99.90;;;;;;5031012;28;20447;-80
2021/12/14 12:38:25;;;;;;;28.83;18.30;;;9.90;99.90;;;;;;5033196;28;20538;-78
2021/12/14 12:40:57;;;;;;;15.77;10.60;;;9.80;99.90;;;;;;5039594;28;20462;-80
2021/12/14 12:43:28;;;;;;;18.70;13.10;;;11.30;99.90;;;;;;5031933;28;20455;-80
2021/12/14 12:46:08;;;;;;;26.07;14.97;;;12.10;99.90;;;;;;5032141;28;20489;-81
2021/12/14 12:49:11;;;;;;;23.00;15.00;;;12.40;99.90;;;;;;5030989;28;20450;-79
2021/12/14 12:51:44;;;;;;;22.50;17.17;;;11.80;99.90;;;;;;5028468;28;20478;-79
2021/12/14 12:54:22;;;;;;;25.07;17.83;;;11.30;99.90;;;;;;5022411;28;20460;-81
2021/12/14 12:57:08;;;;;;;23.90;17.30;;;11.10;99.90;;;;;;5047351;28;20443;-79
2021/12/14 12:59:47;;;;;;;26.50;19.00;;;10.90;99.90;;;;;;5035126;28;20481;-83
2021/12/14 13:02:22;;;;;;;29.63;17.83;;;10.80;99.90;;;;;;5039589;28;20551;-83
2021/12/14 13:04:58;;;;;;;26.47;17.10;;;10.90;99.90;;;;;;5050008;28;20919;-82
2021/12/14 13:07:32;;;;;;;24.40;16.00;;;10.80;99.90;;;;;;5040837;28;20462;-82
2021/12/14 13:10:34;;;;;;;28.17;20.73;;;10.90;99.90;;;;;;5057412;28;20532;-83
2021/12/14 13:13:10;;;;;;;27.80;18.20;;;10.60;99.90;;;;;;5042422;28;20474;-80
2021/12/14 13:15:53;;;;;;;23.97;16.53;;;10.60;99.90;;;;;;5037093;28;20484;-83
2021/12/14 13:18:41;;;;;;;29.57;17.80;;;10.40;99.90;;;;;;5034968;28;20450;-79
2021/12/14 13:21:14;;;;;;;25.30;17.70;;;10.30;99.90;;;;;;5031991;28;20456;-81
2021/12/14 13:23:45;;;;;;;29.33;17.67;;;10.20;99.90;;;;;;5036474;28;20473;-81
2021/12/14 13:26:25;;;;;;;24.80;17.40;;;10.20;99.90;;;;;;5029984;28;20460;-82
2021/12/14 13:28:54;;;;;;;24.87;17.37;;;10.20;99.90;;;;;;5032240;28;20523;-82
2021/12/14 13:31:26;;;;;;;27.40;17.07;;;10.00;99.90;;;;;;5051531;28;20489;-80
2021/12/14 13:33:55;;;;;;;24.50;17.70;;;9.90;99.90;;;;;;5043525;28;20467;-80
2021/12/14 13:36:22;;;;;;;24.83;17.20;;;10.00;99.90;;;;;;5034581;28;20441;-79